Minot AFB, North Dakota
Current Conditions -  °F | °C
As of 3:58 AM on Sunday 23 Nov 2014 (Local Time) from KMIB Reporting Station
Overcast Overcast  
Wind Chill: 33°   Ceiling: 2500
Heat Index: 40°   Visibility: 10mi
Dew Point: 34°   Wind: 10mph
Humidity: 80%   Direction: 280°W
Pressure: 29.3"   Gusts: NA
Location:  48.42°N, 101.33°W
Report Text: KMIB 230958Z AUTO 28009KT 10SM BKN025 OVC031 04/01 A2930 RMK AO2 SLP939 T00430012
Loading
Personal Weather Stations






























Interactive Weather Map New forecast layout! Learn more

10-Day Weather Forecast

Advertisements
Track Severe Weather on mobile